Time;durP1;ratioP1;P1;durP2;ratioP2;P2;SDS_P1;SDS_P2;PMS_P1;PMS_P2;Temp;Humidity;BMP_temperature;BMP_pressure;BME280_temperature;BME280_humidity;BME280_pressure;Samples;Min_cycle;Max_cycle;Signal;HPM_P1;HPM_P2
2023/04/15 00:01:04;;;;;;;13.57;5.65;;;4.40;99.90;;;3.15;100.00;96706.22;4981484;28;20456;-67
2023/04/15 00:03:34;;;;;;;12.85;5.68;;;4.30;99.90;;;3.24;100.00;96700.84;4984325;28;20198;-66
2023/04/15 00:06:02;;;;;;;12.57;5.45;;;4.40;99.90;;;3.04;100.00;96700.53;4980717;28;20050;-67
2023/04/15 00:08:30;;;;;;;12.25;6.38;;;4.40;99.90;;;3.12;100.00;96698.59;4985806;28;20046;-66
2023/04/15 00:11:01;;;;;;;19.30;9.15;;;4.50;99.90;;;3.14;100.00;96705.34;4982141;28;20051;-66
2023/04/15 00:13:29;;;;;;;17.75;8.65;;;4.40;99.90;;;3.09;100.00;96704.63;4979820;28;20061;-67
2023/04/15 00:15:56;;;;;;;16.00;7.65;;;4.40;99.90;;;3.14;100.00;96691.69;4979885;28;20066;-67
2023/04/15 00:18:23;;;;;;;16.33;7.80;;;4.40;99.90;;;3.17;100.00;96691.63;4978438;28;20057;-68
2023/04/15 00:20:51;;;;;;;19.13;9.18;;;4.30;99.90;;;3.02;100.00;96694.59;4965657;28;20055;-67
2023/04/15 00:23:18;;;;;;;14.13;6.68;;;4.20;99.90;;;2.98;100.00;96698.97;4981891;28;20534;-66
2023/04/15 00:25:45;;;;;;;10.60;5.53;;;4.20;99.90;;;2.91;100.00;96702.56;4981721;28;20523;-67
2023/04/15 00:28:13;;;;;;;9.93;4.57;;;4.10;99.90;;;2.87;100.00;96693.28;4982530;28;20069;-67
2023/04/15 00:30:40;;;;;;;9.63;4.40;;;4.00;99.90;;;2.85;100.00;96695.91;4978023;28;20053;-66
2023/04/15 00:33:07;;;;;;;8.80;4.00;;;4.10;99.90;;;2.97;100.00;96692.16;4981826;28;20638;-67
2023/04/15 00:35:36;;;;;;;10.55;4.00;;;4.20;99.90;;;2.96;100.00;96692.19;4984173;28;20142;-67
2023/04/15 00:38:05;;;;;;;8.85;4.22;;;4.30;99.90;;;2.98;100.00;96690.44;4984849;28;20054;-67
2023/04/15 00:40:32;;;;;;;10.40;4.30;;;4.30;99.90;;;2.95;100.00;96691.38;4979313;28;20082;-67
2023/04/15 00:42:59;;;;;;;8.10;4.07;;;4.30;99.90;;;2.78;100.00;96681.53;4980343;28;20054;-67
2023/04/15 00:45:27;;;;;;;9.88;4.68;;;4.20;99.90;;;2.84;100.00;96680.53;4985266;28;20054;-67
2023/04/15 00:47:55;;;;;;;8.50;4.38;;;4.20;99.90;;;2.80;100.00;96678.94;4964236;28;20817;-66
2023/04/15 00:50:22;;;;;;;12.80;5.13;;;4.20;99.90;;;2.66;100.00;96675.00;4982372;28;20149;-68
2023/04/15 00:52:49;;;;;;;10.32;4.40;;;4.20;99.90;;;2.61;100.00;96681.16;4982586;28;20583;-67
2023/04/15 00:55:16;;;;;;;11.98;4.57;;;4.10;99.90;;;2.51;100.00;96672.84;4978780;28;20157;-67
2023/04/15 00:57:43;;;;;;;10.32;4.45;;;4.00;99.90;;;2.57;100.00;96674.41;4979616;28;20050;-67
2023/04/15 01:00:11;;;;;;;9.38;4.32;;;4.00;99.90;;;2.57;100.00;96675.25;4978456;28;20085;-67
2023/04/15 01:02:38;;;;;;;7.93;3.88;;;4.00;99.90;;;2.36;100.00;96684.31;4982587;28;20057;-66
2023/04/15 01:05:06;;;;;;;9.15;4.72;;;3.90;99.90;;;2.44;100.00;96679.84;4980652;28;20046;-67
2023/04/15 01:07:33;;;;;;;13.20;4.30;;;3.90;99.90;;;2.37;100.00;96678.28;4983211;28;20082;-67
2023/04/15 01:10:02;;;;;;;12.63;4.93;;;3.90;99.90;;;2.34;100.00;96680.94;4983382;28;20120;-67
2023/04/15 01:12:32;;;;;;;8.50;4.35;;;3.90;99.90;;;2.42;100.00;96678.22;4978596;28;20153;-67
2023/04/15 01:14:59;;;;;;;10.95;3.83;;;3.90;99.90;;;2.33;100.00;96673.28;4983231;28;20046;-66
2023/04/15 01:17:27;;;;;;;6.60;3.25;;;3.80;99.90;;;2.38;100.00;96671.47;4983266;28;20093;-67
2023/04/15 01:19:58;;;;;;;8.35;3.85;;;3.80;99.90;;;2.28;100.00;96674.25;4961864;28;20054;-67
2023/04/15 01:22:27;;;;;;;9.27;3.60;;;3.80;99.90;;;2.21;100.00;96675.28;4983025;28;20054;-67
2023/04/15 01:25:07;;;;;;;6.97;3.25;;;3.70;99.90;;;2.09;100.00;96673.00;4981786;28;20082;-67
2023/04/15 01:27:35;;;;;;;8.48;3.58;;;3.70;99.90;;;1.96;100.00;96675.03;4983841;28;20046;-67
2023/04/15 01:30:04;;;;;;;6.72;3.28;;;3.60;99.90;;;1.91;100.00;96676.81;4978614;28;20652;-67
2023/04/15 01:32:31;;;;;;;9.82;3.42;;;3.50;99.90;;;2.01;100.00;96677.47;4980657;28;20054;-67
2023/04/15 01:34:58;;;;;;;8.38;3.15;;;3.50;99.90;;;2.01;100.00;96683.44;4979747;28;20105;-67
2023/04/15 01:37:25;;;;;;;9.18;3.63;;;3.50;99.90;;;2.15;100.00;96682.28;4981675;28;20133;-67
2023/04/15 01:39:52;;;;;;;9.63;3.85;;;3.50;99.90;;;2.05;100.00;96691.88;4967154;28;20053;-67
2023/04/15 01:42:21;;;;;;;7.13;3.10;;;3.40;99.90;;;1.94;100.00;96687.00;4979365;28;20046;-67
2023/04/15 01:44:48;;;;;;;9.63;3.45;;;3.40;99.90;;;1.68;100.00;96685.03;4982138;28;20043;-67
2023/04/15 01:47:15;;;;;;;10.60;4.15;;;3.30;99.90;;;1.66;100.00;96697.00;4978615;28;20398;-67
2023/04/15 01:49:42;;;;;;;7.93;3.60;;;3.20;99.90;;;1.56;100.00;96695.53;4979232;28;20125;-67
2023/04/15 01:52:09;;;;;;;8.82;3.53;;;3.20;99.90;;;1.64;100.00;96698.75;4981726;28;20073;-67
2023/04/15 01:54:36;;;;;;;9.68;3.28;;;3.10;99.90;;;1.70;100.00;96700.34;4981606;28;20043;-66
2023/04/15 01:57:04;;;;;;;9.02;3.80;;;3.10;99.90;;;1.28;100.00;96690.97;4982442;28;20141;-65
2023/04/15 01:59:31;;;;;;;9.88;4.43;;;3.10;99.90;;;1.47;100.00;96699.09;4979153;28;20137;-67
2023/04/15 02:01:58;;;;;;;10.25;3.75;;;3.00;99.90;;;1.54;100.00;96695.53;4983829;28;20129;-67
2023/04/15 02:04:26;;;;;;;8.43;4.53;;;3.10;99.90;;;1.23;100.00;96695.31;4979114;28;20058;-67
2023/04/15 02:06:53;;;;;;;11.82;4.72;;;3.10;99.90;;;1.12;100.00;96700.66;4984965;28;20046;-65
2023/04/15 02:09:21;;;;;;;7.32;4.30;;;3.00;99.90;;;1.19;100.00;96704.78;4978421;28;20046;-67
2023/04/15 02:11:47;;;;;;;9.35;3.63;;;2.80;99.90;;;1.29;100.00;96705.44;4979986;28;20045;-67
2023/04/15 02:14:15;;;;;;;9.93;4.70;;;2.70;99.90;;;1.34;100.00;96711.28;4978659;28;20511;-67
2023/04/15 02:16:41;;;;;;;10.00;4.00;;;2.70;99.90;;;1.31;100.00;96698.56;4978396;28;20054;-65
2023/04/15 02:19:09;;;;;;;10.18;3.65;;;2.70;99.90;;;1.34;100.00;96711.28;4982202;28;20060;-65
2023/04/15 02:21:35;;;;;;;11.63;3.72;;;2.70;99.90;;;1.30;100.00;96709.69;4983721;28;20053;-66
2023/04/15 02:24:03;;;;;;;7.43;2.65;;;2.70;99.90;;;1.41;100.00;96710.28;4981447;28;20105;-66
2023/04/15 02:26:33;;;;;;;8.20;3.40;;;2.70;99.90;;;1.27;100.00;96702.06;4980990;28;20057;-66
2023/04/15 02:29:00;;;;;;;6.88;2.67;;;2.70;99.90;;;1.42;100.00;96698.38;4978978;28;20725;-66
2023/04/15 02:31:27;;;;;;;6.05;2.70;;;2.80;99.90;;;1.37;100.00;96705.28;4976469;28;20050;-66
2023/04/15 02:33:54;;;;;;;9.88;3.22;;;2.80;99.90;;;1.30;100.00;96706.28;4978497;28;20100;-67
2023/04/15 02:36:22;;;;;;;8.52;2.95;;;2.80;99.90;;;1.28;100.00;96698.66;4982013;28;20055;-66
2023/04/15 02:38:50;;;;;;;7.75;2.90;;;2.70;99.90;;;1.16;100.00;96692.03;4981225;28;20050;-66
2023/04/15 02:41:17;;;;;;;9.07;3.03;;;2.70;99.90;;;1.11;100.00;96696.41;4982582;28;20439;-66
2023/04/15 02:43:44;;;;;;;9.10;3.58;;;2.60;99.90;;;1.15;100.00;96694.66;4980035;28;20077;-67
2023/04/15 02:46:13;;;;;;;9.15;3.53;;;2.60;99.90;;;1.20;100.00;96696.22;4980627;28;20057;-67
2023/04/15 02:48:40;;;;;;;12.60;4.57;;;2.70;99.90;;;0.98;100.00;96698.38;4983630;28;20125;-66
2023/04/15 02:51:15;;;;;;;9.23;2.60;;;2.60;99.90;;;1.06;100.00;96705.88;4984955;28;20046;-67
2023/04/15 02:53:43;;;;;;;7.38;2.60;;;2.60;99.90;;;1.15;100.00;96702.31;4986075;28;20038;-66
2023/04/15 02:56:10;;;;;;;6.72;2.50;;;2.60;99.90;;;1.09;100.00;96705.81;4984968;28;20050;-67
2023/04/15 02:58:39;;;;;;;6.05;2.30;;;2.60;99.90;;;1.22;100.00;96699.59;4985643;28;20082;-65
2023/04/15 03:01:07;;;;;;;9.18;2.88;;;2.60;99.90;;;1.08;100.00;96701.59;4979312;28;20605;-66
2023/04/15 03:03:37;;;;;;;4.47;2.55;;;2.60;99.90;;;0.92;100.00;96703.59;4983534;28;20046;-66
2023/04/15 03:06:05;;;;;;;5.68;2.67;;;2.50;99.90;;;0.72;100.00;96706.50;4983171;28;20082;-66
2023/04/15 03:08:32;;;;;;;9.85;2.80;;;2.40;99.90;;;0.56;100.00;96703.38;4986600;28;20060;-67
2023/04/15 03:11:01;;;;;;;6.35;2.53;;;2.40;99.90;;;0.69;100.00;96704.00;4979793;28;20069;-67
2023/04/15 03:13:28;;;;;;;5.45;2.17;;;2.30;99.90;;;0.85;100.00;96703.75;4985859;28;20491;-67
2023/04/15 03:15:55;;;;;;;8.27;2.60;;;2.30;99.90;;;0.64;100.00;96700.69;4984413;28;20058;-67
2023/04/15 03:18:23;;;;;;;8.10;2.80;;;2.20;99.90;;;0.36;100.00;96701.13;4985520;28;20065;-66
2023/04/15 03:20:50;;;;;;;7.25;3.05;;;2.20;99.90;;;0.56;100.00;96698.25;4980874;28;20061;-66
2023/04/15 03:23:17;;;;;;;10.70;3.15;;;2.10;99.90;;;0.64;100.00;96705.81;4971812;28;20049;-65
2023/04/15 03:25:45;;;;;;;11.38;4.00;;;2.00;99.90;;;0.56;100.00;96708.47;4986169;28;20440;-66
2023/04/15 03:28:12;;;;;;;8.68;3.25;;;2.10;99.90;;;0.66;100.00;96705.75;4986659;28;20077;-67
2023/04/15 03:30:39;;;;;;;9.60;3.85;;;2.10;99.90;;;0.67;100.00;96710.84;4982575;28;20046;-66
2023/04/15 03:33:05;;;;;;;9.00;3.20;;;2.10;99.90;;;0.86;100.00;96708.81;4984036;28;20054;-66
2023/04/15 03:35:33;;;;;;;7.10;2.60;;;2.20;99.90;;;0.90;100.00;96709.59;4985325;28;20054;-67
2023/04/15 03:38:00;;;;;;;7.40;2.38;;;2.30;99.90;;;0.62;100.00;96720.31;4983702;28;20042;-66
2023/04/15 03:40:27;;;;;;;6.20;2.60;;;2.20;99.90;;;0.39;100.00;96708.75;4983097;28;20141;-67
2023/04/15 03:42:55;;;;;;;7.20;3.15;;;2.10;99.90;;;0.48;100.00;96718.00;4983467;28;20042;-66
2023/04/15 03:45:25;;;;;;;5.35;2.50;;;2.10;99.90;;;0.71;100.00;96712.50;4981759;28;20061;-66
2023/04/15 03:47:52;;;;;;;7.20;2.33;;;2.10;99.90;;;0.75;100.00;96708.16;4983029;28;20053;-66
2023/04/15 03:50:19;;;;;;;7.00;2.63;;;2.10;99.90;;;0.78;100.00;96705.56;4983708;28;20062;-66
2023/04/15 03:52:46;;;;;;;9.90;3.30;;;2.20;99.90;;;0.84;100.00;96710.53;4981541;28;20081;-66
2023/04/15 03:55:16;;;;;;;9.20;3.20;;;2.20;99.90;;;0.76;100.00;96707.28;4987318;28;20114;-67
2023/04/15 03:57:43;;;;;;;8.77;2.85;;;2.20;99.90;;;0.52;100.00;96719.59;4966466;28;20055;-66
2023/04/15 04:00:10;;;;;;;8.20;3.10;;;2.10;99.90;;;0.76;100.00;96714.97;4981740;28;20558;-67
2023/04/15 04:02:37;;;;;;;10.55;2.72;;;2.10;99.90;;;0.89;100.00;96718.97;4985832;28;20086;-66
2023/04/15 04:05:05;;;;;;;7.55;3.30;;;2.20;99.90;;;0.77;100.00;96725.13;4983232;28;20062;-66
2023/04/15 04:07:32;;;;;;;6.60;2.33;;;2.20;99.90;;;0.80;100.00;96725.09;4984320;28;20050;-66
2023/04/15 04:09:59;;;;;;;7.95;2.38;;;2.20;99.90;;;0.65;100.00;96719.41;4984062;28;20418;-67
2023/04/15 04:12:26;;;;;;;9.55;2.80;;;2.10;99.90;;;0.69;100.00;96719.31;4980410;28;20137;-67
2023/04/15 04:14:53;;;;;;;8.68;2.88;;;2.10;99.90;;;0.75;100.00;96719.22;4983587;28;20050;-67
2023/04/15 04:17:20;;;;;;;5.35;2.70;;;2.20;99.90;;;0.61;100.00;96722.00;4982384;28;20519;-67
2023/04/15 04:19:47;;;;;;;7.55;2.45;;;2.20;99.90;;;0.60;100.00;96727.97;4982028;28;20054;-67
2023/04/15 04:22:14;;;;;;;6.35;2.22;;;2.10;99.90;;;0.76;100.00;96720.91;4982310;28;20554;-67
2023/04/15 04:24:41;;;;;;;10.35;2.85;;;2.10;99.90;;;0.73;100.00;96715.00;4982492;28;20046;-67
2023/04/15 04:27:08;;;;;;;7.05;2.97;;;2.20;99.90;;;0.56;100.00;96723.78;4981335;28;20050;-66
2023/04/15 04:29:35;;;;;;;6.55;3.03;;;2.10;99.90;;;0.60;100.00;96729.69;4979264;28;20046;-67
2023/04/15 04:32:02;;;;;;;7.03;3.20;;;2.10;99.90;;;0.62;100.00;96735.63;4983108;28;20053;-67
2023/04/15 04:34:29;;;;;;;7.22;3.13;;;2.10;99.90;;;0.54;100.00;96737.47;4977178;28;20084;-66
2023/04/15 04:36:56;;;;;;;10.63;2.83;;;2.10;99.90;;;0.60;100.00;96734.81;4981904;28;20082;-67
2023/04/15 04:39:23;;;;;;;5.97;2.67;;;2.00;99.90;;;0.69;100.00;96731.25;4982316;28;20145;-67
2023/04/15 04:41:51;;;;;;;9.32;3.30;;;2.00;99.90;;;0.58;100.00;96731.44;4979913;28;20137;-66
2023/04/15 04:44:18;;;;;;;6.25;2.63;;;2.00;99.90;;;0.63;100.00;96729.63;4981598;28;20058;-66
2023/04/15 04:46:45;;;;;;;12.10;5.25;;;2.00;99.90;;;0.42;100.00;96730.84;4980161;28;20050;-66
2023/04/15 04:49:11;;;;;;;18.27;10.15;;;2.00;99.90;;;0.48;100.00;96732.44;4980534;28;20050;-66
2023/04/15 04:51:40;;;;;;;31.30;18.52;;;2.00;99.90;;;0.47;100.00;96739.25;4982310;28;20129;-67
2023/04/15 04:54:07;;;;;;;39.05;23.27;;;1.90;99.90;;;0.56;100.00;96728.91;4983711;28;20150;-66
2023/04/15 04:56:34;;;;;;;37.03;21.63;;;1.90;99.90;;;0.57;100.00;96732.28;4980493;28;20047;-67
2023/04/15 04:59:01;;;;;;;38.05;20.40;;;1.90;99.90;;;0.45;100.00;96730.78;4981537;28;20054;-66
2023/04/15 05:01:28;;;;;;;43.33;25.52;;;1.90;99.90;;;0.36;100.00;96731.75;4983268;28;20053;-67
2023/04/15 05:03:55;;;;;;;103.47;58.65;;;1.90;99.90;;;0.39;100.00;96736.84;4981913;28;20055;-67
2023/04/15 05:06:23;;;;;;;124.10;72.00;;;1.90;99.90;;;0.47;100.00;96736.72;4983775;28;20054;-66
2023/04/15 05:08:50;;;;;;;151.02;84.22;;;1.90;99.90;;;0.58;100.00;96734.00;4984316;28;20058;-67
2023/04/15 05:11:17;;;;;;;106.75;63.40;;;1.90;99.90;;;0.75;100.00;96728.59;4981423;28;20078;-67
2023/04/15 05:13:44;;;;;;;66.70;37.40;;;2.00;99.90;;;0.76;100.00;96727.72;4981752;28;20053;-66
2023/04/15 05:16:11;;;;;;;76.60;43.60;;;2.10;99.90;;;0.86;100.00;96729.25;4981127;28;20093;-66
2023/04/15 05:18:38;;;;;;;79.43;45.65;;;2.10;99.90;;;0.94;100.00;96732.50;4981955;28;20181;-68
2023/04/15 05:21:05;;;;;;;77.10;42.03;;;2.10;99.90;;;0.90;100.00;96732.59;4981128;28;20058;-66
2023/04/15 05:23:32;;;;;;;117.75;70.00;;;2.20;99.90;;;0.85;100.00;96731.84;4983004;28;20138;-66
2023/04/15 05:25:59;;;;;;;68.90;41.35;;;2.30;99.90;;;1.18;100.00;96733.75;4984391;28;20049;-66
2023/04/15 05:28:26;;;;;;;76.20;42.75;;;2.40;99.90;;;1.25;100.00;96729.38;4981884;28;20062;-67
2023/04/15 05:30:54;;;;;;;75.20;40.30;;;2.40;99.90;;;1.42;100.00;96735.00;4980456;28;20050;-67
2023/04/15 05:33:22;;;;;;;71.18;41.22;;;2.50;99.90;;;1.43;100.00;96730.72;4981851;28;20044;-67
2023/04/15 05:35:49;;;;;;;62.13;37.25;;;2.50;99.90;;;1.68;100.00;96733.63;4981105;28;20546;-67
2023/04/15 05:38:16;;;;;;;54.13;32.63;;;2.60;99.90;;;1.62;100.00;96733.75;4980578;28;20554;-67
2023/04/15 05:40:43;;;;;;;48.00;28.58;;;2.70;99.90;;;1.53;100.00;96736.50;4981888;28;21089;-67
2023/04/15 05:43:10;;;;;;;42.25;24.73;;;2.70;99.90;;;1.79;100.00;96741.91;4983104;28;20088;-66
2023/04/15 05:45:37;;;;;;;44.25;23.85;;;2.80;99.90;;;1.88;100.00;96746.00;4981839;28;20046;-67
2023/04/15 05:48:04;;;;;;;100.13;55.88;;;2.90;99.90;;;1.61;100.00;96729.50;4984592;28;20096;-66
2023/04/15 05:50:32;;;;;;;103.13;58.20;;;2.90;99.90;;;1.58;100.00;96743.22;4980781;28;20046;-67
2023/04/15 05:52:59;;;;;;;92.25;53.63;;;3.00;99.90;;;1.72;100.00;96747.22;4984926;28;20061;-67
2023/04/15 05:55:26;;;;;;;79.97;46.38;;;3.00;99.90;;;1.75;100.00;96753.09;4984654;28;20141;-66
2023/04/15 05:57:53;;;;;;;83.95;48.55;;;3.00;99.90;;;1.78;100.00;96755.59;4979492;28;20043;-66
2023/04/15 06:00:20;;;;;;;72.93;43.13;;;3.00;99.90;;;1.96;100.00;96761.19;4978151;28;20054;-67
2023/04/15 06:02:47;;;;;;;73.93;41.35;;;3.10;99.90;;;2.18;100.00;96764.13;4983071;28;20046;-67
2023/04/15 06:05:14;;;;;;;61.80;30.35;;;3.20;99.90;;;2.56;100.00;96758.13;4978215;28;20050;-67
2023/04/15 06:07:42;;;;;;;58.00;32.70;;;3.30;99.90;;;2.85;100.00;96759.09;4979396;28;20423;-66
2023/04/15 06:10:11;;;;;;;77.35;42.88;;;3.60;99.90;;;2.82;100.00;96759.19;4980198;28;20052;-67
2023/04/15 06:12:38;;;;;;;55.72;33.15;;;3.70;99.90;;;3.13;100.00;96751.56;4975939;28;20050;-67
2023/04/15 06:15:06;;;;;;;50.40;27.50;;;3.80;99.90;;;3.12;100.00;96755.88;4979923;28;20133;-67
2023/04/15 06:17:32;;;;;;;52.08;29.67;;;4.00;99.90;;;3.37;100.00;96759.47;4964450;28;20050;-67
2023/04/15 06:20:00;;;;;;;28.15;14.95;;;4.20;99.90;;;3.44;100.00;96759.25;4978310;28;21026;-67
2023/04/15 06:22:27;;;;;;;24.08;13.38;;;4.40;99.90;;;3.81;100.00;96760.81;4981773;28;20046;-67
2023/04/15 06:24:54;;;;;;;18.00;8.23;;;4.60;99.90;;;3.98;100.00;96757.75;4980730;28;20077;-67
2023/04/15 06:27:21;;;;;;;15.68;6.15;;;4.70;99.90;;;4.24;100.00;96756.94;4982358;28;20054;-67
2023/04/15 06:29:48;;;;;;;13.75;6.07;;;4.90;99.90;;;4.65;100.00;96756.56;4982531;28;20051;-67
2023/04/15 06:32:15;;;;;;;14.48;5.70;;;5.20;99.90;;;4.87;100.00;96746.41;4981740;28;20047;-67
2023/04/15 06:34:42;;;;;;;16.55;6.10;;;5.30;99.90;;;5.05;100.00;96742.38;4981937;28;20049;-67
2023/04/15 06:37:14;;;;;;;13.88;5.28;;;5.50;99.90;;;5.40;100.00;96744.56;4980620;28;20053;-67
2023/04/15 06:39:42;;;;;;;11.27;4.22;;;5.70;99.90;;;5.26;100.00;96739.06;4978616;28;20058;-67
2023/04/15 06:42:10;;;;;;;11.77;4.40;;;5.90;99.90;;;5.40;100.00;96738.59;4981527;28;20057;-68
2023/04/15 06:44:38;;;;;;;10.40;3.38;;;6.00;99.90;;;5.60;100.00;96737.88;4980104;28;20479;-67
2023/04/15 06:47:05;;;;;;;11.43;3.53;;;6.20;99.90;;;5.83;100.00;96740.44;4979052;28;20141;-67
2023/04/15 06:49:32;;;;;;;6.95;2.88;;;6.40;99.90;;;6.08;100.00;96737.81;4982138;28;20048;-67
2023/04/15 06:52:00;;;;;;;8.65;3.20;;;6.50;99.90;;;6.43;100.00;96734.75;4979523;28;20055;-67
2023/04/15 06:54:27;;;;;;;7.88;2.72;;;6.70;99.90;;;6.67;100.00;96738.94;4977899;28;20058;-68
2023/04/15 06:56:54;;;;;;;6.63;3.05;;;6.90;99.90;;;6.84;100.00;96730.53;4978526;28;20129;-67
2023/04/15 06:59:21;;;;;;;6.95;2.80;;;7.00;99.90;;;6.96;100.00;96725.78;4983709;28;20038;-67
2023/04/15 07:01:48;;;;;;;9.57;3.20;;;7.20;99.90;;;6.91;100.00;96726.78;4981668;28;20050;-66
2023/04/15 07:04:15;;;;;;;9.52;3.08;;;7.40;99.90;;;7.04;100.00;96723.69;4980821;28;20054;-67
2023/04/15 07:06:43;;;;;;;7.70;2.47;;;7.60;99.90;;;7.13;100.00;96725.88;4981902;28;20134;-65
2023/04/15 07:09:10;;;;;;;7.70;1.98;;;7.70;99.90;;;7.36;100.00;96730.06;4980035;28;20400;-65
2023/04/15 07:11:37;;;;;;;8.02;2.22;;;7.90;99.90;;;7.77;100.00;96723.97;4981917;28;20050;-66
2023/04/15 07:14:04;;;;;;;8.13;1.83;;;8.20;99.90;;;7.96;100.00;96725.66;4981966;28;20054;-65
2023/04/15 07:16:31;;;;;;;8.57;1.92;;;8.40;99.90;;;8.04;100.00;96714.97;4982368;28;20053;-65
2023/04/15 07:18:58;;;;;;;6.88;1.70;;;8.60;99.90;;;8.38;100.00;96709.03;4984692;28;20106;-64
2023/04/15 07:21:26;;;;;;;6.22;1.75;;;8.80;99.90;;;8.74;100.00;96712.56;4981120;28;20054;-66
2023/04/15 07:23:54;;;;;;;6.78;1.67;;;9.00;99.90;;;9.10;100.00;96709.88;4983220;28;20077;-65
2023/04/15 07:26:20;;;;;;;6.68;1.75;;;9.40;99.90;;;9.31;100.00;96707.13;4980972;28;20050;-66
2023/04/15 07:28:48;;;;;;;4.90;1.45;;;9.70;99.90;;;9.75;100.00;96702.19;4979783;28;20044;-68
2023/04/15 07:31:16;;;;;;;7.80;1.42;;;10.00;99.90;;;9.80;100.00;96702.78;4981555;28;20050;-68
2023/04/15 07:33:45;;;;;;;6.30;1.80;;;10.20;99.90;;;9.99;100.00;96712.16;4982980;28;20061;-69
2023/04/15 07:36:12;;;;;;;5.63;1.30;;;10.50;99.90;;;10.00;100.00;96703.47;4983006;28;20224;-69
2023/04/15 07:38:39;;;;;;;5.50;1.33;;;10.60;99.90;;;9.97;100.00;96704.47;4981357;28;20039;-69
2023/04/15 07:41:08;;;;;;;8.23;1.30;;;10.60;99.90;;;10.19;100.00;96705.88;4983858;28;20399;-69
2023/04/15 07:43:35;;;;;;;3.80;1.20;;;10.80;99.90;;;10.33;100.00;96713.78;4980629;28;20133;-69
2023/04/15 07:46:05;;;;;;;6.85;1.58;;;10.90;99.90;;;10.15;100.00;96714.75;4985261;28;20052;-69
2023/04/15 07:48:33;;;;;;;6.82;1.95;;;;;;;10.11;100.00;96714.09;4985329;28;20043;-70
2023/04/15 07:51:02;;;;;;;4.50;1.40;;;10.90;99.90;;;9.81;100.00;96720.00;4982137;28;20150;-69
2023/04/15 07:53:30;;;;;;;7.10;1.92;;;10.80;99.90;;;9.81;100.00;96722.59;4984709;28;20061;-67
2023/04/15 07:55:57;;;;;;;6.18;1.60;;;10.80;99.90;;;9.92;100.00;96729.81;4982752;28;20043;-69
2023/04/15 07:58:24;;;;;;;5.00;1.52;;;10.80;99.90;;;10.29;100.00;96717.47;4983752;28;20050;-69
2023/04/15 08:00:52;;;;;;;6.68;1.70;;;10.90;99.90;;;10.46;100.00;96725.13;4987037;28;20495;-70
2023/04/15 08:03:18;;;;;;;6.72;1.60;;;11.00;99.90;;;10.44;100.00;96723.56;4983274;28;20142;-67
2023/04/15 08:05:47;;;;;;;8.43;1.63;;;;;;;10.48;100.00;96721.63;4985178;28;20046;-69
2023/04/15 08:08:14;;;;;;;7.60;1.50;;;11.20;99.90;;;10.76;100.00;96713.94;4985260;28;20058;-68
2023/04/15 08:10:41;;;;;;;4.60;1.10;;;11.30;99.90;;;10.97;100.00;96713.63;4976974;28;20054;-69
2023/04/15 08:13:08;;;;;;;4.45;1.33;;;11.40;99.90;;;11.61;100.00;96714.19;4977673;28;20059;-69
2023/04/15 08:15:35;;;;;;;5.32;1.17;;;11.50;99.90;;;11.81;100.00;96715.56;4974206;28;20133;-67
2023/04/15 08:18:02;;;;;;;7.55;1.42;;;11.70;99.90;;;12.25;100.00;96706.81;4977914;28;20042;-69
2023/04/15 08:20:29;;;;;;;5.40;1.23;;;12.00;99.90;;;12.58;100.00;96711.63;4983717;28;20060;-69
2023/04/15 08:22:56;;;;;;;5.60;1.33;;;12.40;99.90;;;12.64;100.00;96720.81;4983414;28;20050;-69
2023/04/15 08:25:23;;;;;;;7.97;1.48;;;12.80;99.90;;;12.60;100.00;96717.56;4983491;28;20054;-69
2023/04/15 08:27:50;;;;;;;7.38;1.23;;;13.00;99.90;;;12.34;100.00;96725.28;4978801;28;20046;-69
2023/04/15 08:30:18;;;;;;;6.28;1.13;;;13.20;99.90;;;12.28;100.00;96725.66;4979879;28;20058;-69
2023/04/15 08:32:48;;;;;;;4.88;1.13;;;13.20;99.90;;;12.73;100.00;96730.66;4983986;28;20128;-71
2023/04/15 08:35:16;;;;;;;4.85;1.17;;;13.40;99.90;;;12.04;100.00;96733.25;4980416;28;20050;-70
2023/04/15 08:37:43;;;;;;;7.72;1.25;;;13.40;99.90;;;12.17;100.00;96742.88;4982404;28;20055;-68
2023/04/15 08:40:11;;;;;;;4.60;1.30;;;13.10;99.90;;;12.13;100.00;96742.22;4984881;28;20078;-69
2023/04/15 08:42:44;;;;;;;4.05;1.35;;;13.30;99.90;;;12.26;100.00;96745.75;4981208;28;20463;-69
2023/04/15 08:45:11;;;;;;;3.83;1.30;;;13.40;99.90;;;12.77;100.00;96748.56;4982377;28;20073;-69
2023/04/15 08:47:39;;;;;;;4.78;1.20;;;13.80;99.90;;;12.47;100.00;96747.91;4982697;28;20516;-69
2023/04/15 08:50:09;;;;;;;4.10;1.05;;;14.00;99.90;;;13.07;100.00;96741.44;4981815;28;20474;-68
2023/04/15 08:52:37;;;;;;;5.65;1.42;;;14.40;99.90;;;13.64;100.00;96741.13;4984947;28;20054;-69
2023/04/15 08:55:07;;;;;;;3.83;1.13;;;15.00;99.90;;;13.37;100.00;96741.22;4976649;28;20462;-69
2023/04/15 08:57:35;;;;;;;6.68;1.55;;;15.20;99.90;;;13.93;100.00;96746.94;4982688;28;20526;-69
2023/04/15 09:00:03;;;;;;;6.50;1.40;;;15.20;99.90;;;13.79;100.00;96749.66;4985498;28;20524;-69
2023/04/15 09:02:31;;;;;;;4.72;1.10;;;15.10;99.90;;;14.02;100.00;96745.47;4983700;28;20174;-70
2023/04/15 09:04:58;;;;;;;5.53;1.40;;;15.30;99.90;;;14.33;100.00;96743.31;4985054;28;20055;-70
2023/04/15 09:07:25;;;;;;;5.28;1.25;;;15.40;99.90;;;14.40;100.00;96744.53;4982861;28;20073;-69
2023/04/15 09:09:53;;;;;;;6.80;1.73;;;15.50;99.00;;;14.69;100.00;96741.63;4985058;28;20046;-69
2023/04/15 09:12:20;;;;;;;5.25;1.08;;;15.80;99.10;;;14.28;100.00;96748.88;4981560;28;20045;-70
2023/04/15 09:14:48;;;;;;;3.33;1.10;;;16.10;98.40;;;14.04;100.00;96745.38;4985261;28;20056;-67
2023/04/15 09:17:20;;;;;;;5.53;1.30;;;15.80;98.70;;;14.81;100.00;96752.03;4983545;28;20050;-70
2023/04/15 09:19:47;;;;;;;;;;;15.50;98.80;;;14.31;100.00;96766.09;4983742;28;20153;-69
2023/04/15 09:22:14;;;;;;;7.10;1.23;;;15.40;99.00;;;13.87;100.00;96756.97;4984229;28;20084;-69
2023/04/15 09:24:42;;;;;;;5.43;1.55;;;15.20;98.90;;;14.08;100.00;96765.09;4985593;28;20054;-69
2023/04/15 09:27:10;;;;;;;5.88;1.00;;;15.30;98.70;;;14.33;100.00;96764.22;4982582;28;20050;-70
2023/04/15 09:29:37;;;;;;;4.05;1.20;;;15.30;98.00;;;14.43;100.00;96760.81;4985868;28;20057;-68
2023/04/15 09:32:15;;;;;;;11.60;1.42;;;15.50;98.50;;;14.84;100.00;96772.69;4984362;28;20046;-69
2023/04/15 09:34:42;;;;;;;5.95;1.42;;;15.80;97.80;;;14.68;100.00;96760.88;4980633;28;20134;-70
2023/04/15 09:37:10;;;;;;;5.90;1.40;;;15.80;97.60;;;14.41;100.00;96769.69;4983544;28;20050;-69
2023/04/15 09:39:50;;;;;;;7.13;1.30;;;15.60;96.90;;;15.25;100.00;96760.16;4982611;28;20049;-70
2023/04/15 09:42:25;;;;;;;7.13;1.48;;;15.80;96.60;;;15.35;100.00;96760.28;4984571;28;20046;-67
2023/04/15 09:44:52;;;;;;;6.63;1.30;;;15.90;97.00;;;15.94;100.00;96767.19;4981838;28;20051;-69
2023/04/15 09:47:32;;;;;;;5.22;1.20;;;16.30;98.60;;;15.50;100.00;96768.78;4985375;28;20137;-69
2023/04/15 09:50:00;;;;;;;5.72;1.48;;;16.40;95.80;;;14.94;100.00;96772.88;4979192;28;20050;-69
2023/04/15 09:52:28;;;;;;;4.90;1.20;;;16.40;97.00;;;15.49;100.00;96775.81;4980118;28;20053;-69
2023/04/15 09:54:59;;;;;;;6.00;1.10;;;16.30;96.00;;;15.82;100.00;96771.59;4981397;28;20462;-70
2023/04/15 09:57:35;;;;;;;5.93;1.17;;;16.40;96.90;;;15.30;100.00;96775.50;4980197;28;20122;-69
2023/04/15 10:00:09;;;;;;;7.10;1.55;;;16.50;96.10;;;15.27;100.00;96774.78;4982665;28;20388;-69
2023/04/15 10:02:43;;;;;;;4.80;1.00;;;16.10;94.60;;;15.93;100.00;96770.78;4978966;28;20392;-70
2023/04/15 10:05:13;;;;;;;6.57;1.60;;;16.50;95.30;;;15.81;100.00;96775.19;4981604;28;20046;-69
2023/04/15 10:07:41;;;;;;;5.53;1.48;;;16.70;93.00;;;15.80;100.00;96783.97;4984271;28;20042;-69
2023/04/15 10:10:10;;;;;;;3.00;1.00;;;16.70;92.40;;;14.98;100.00;96779.53;4977700;28;20132;-69
2023/04/15 10:12:40;;;;;;;5.45;1.00;;;16.30;92.20;;;15.17;100.00;96781.66;4983602;28;20069;-70
2023/04/15 10:15:15;;;;;;;4.50;0.88;;;16.10;92.40;;;14.80;100.00;96792.19;4982887;28;20050;-70
2023/04/15 10:17:45;;;;;;;3.63;0.80;;;;;;;14.73;100.00;96779.66;4977693;28;20071;-69
2023/04/15 10:20:13;;;;;;;3.72;0.70;;;15.90;91.20;;;14.01;100.00;96790.78;4980988;28;20656;-69
2023/04/15 10:22:42;;;;;;;4.22;0.95;;;15.70;90.90;;;14.35;100.00;96791.03;4975755;28;20434;-70